createdAt,value
2023-06-18T00:00:48.058Z,17.46
2023-06-18T00:03:14.531Z,17.43
2023-06-18T00:05:40.978Z,17.35
2023-06-18T00:08:07.396Z,17.30
2023-06-18T00:16:01.910Z,17.20
2023-06-18T00:18:28.436Z,17.19
2023-06-18T00:20:54.887Z,17.17
2023-06-18T00:23:21.306Z,17.13
2023-06-18T00:25:47.721Z,17.12
2023-06-18T00:30:58.131Z,17.07
2023-06-18T00:36:08.786Z,17.07
2023-06-18T00:46:49.325Z,16.98
2023-06-18T00:52:00.663Z,16.93
2023-06-18T00:54:32.325Z,16.94
2023-06-18T00:56:58.757Z,16.91
2023-06-18T00:59:25.165Z,16.91
2023-06-18T01:01:56.656Z,16.89
2023-06-18T01:04:29.882Z,16.91
2023-06-18T01:06:57.476Z,16.90
2023-06-18T01:09:26.458Z,16.89
2023-06-18T01:11:54.274Z,16.87
2023-06-18T01:14:25.900Z,16.88
2023-06-18T01:16:54.321Z,16.86
2023-06-18T01:19:42.686Z,16.90
2023-06-18T01:22:35.256Z,16.91
2023-06-18T01:25:07.166Z,16.90
2023-06-18T01:27:37.320Z,16.92
2023-06-18T01:30:04.872Z,16.98
2023-06-18T01:32:31.319Z,17.02
2023-06-18T01:34:57.717Z,17.10
2023-06-18T01:37:51.825Z,17.17
2023-06-18T01:43:15.209Z,17.25
2023-06-18T01:46:07.304Z,17.28
2023-06-18T01:48:49.396Z,17.29
2023-06-18T01:51:18.054Z,17.32
2023-06-18T01:53:46.800Z,17.34
2023-06-18T01:56:16.252Z,17.31
2023-06-18T01:58:44.338Z,17.23
2023-06-18T02:01:12.029Z,17.10
2023-06-18T02:03:41.423Z,17.07
2023-06-18T02:06:09.625Z,17.09
2023-06-18T02:08:36.351Z,17.10
2023-06-18T02:11:03.498Z,17.11
2023-06-18T02:13:30.014Z,17.13
2023-06-18T02:15:56.790Z,17.12
2023-06-18T02:18:23.390Z,17.11
2023-06-18T02:20:49.835Z,17.02
2023-06-18T02:23:16.355Z,16.99
2023-06-18T02:25:42.891Z,16.98
2023-06-18T02:28:09.324Z,16.98
2023-06-18T02:30:35.740Z,17.00
2023-06-18T02:33:03.658Z,17.01
2023-06-18T02:35:32.178Z,17.01
2023-06-18T02:37:58.754Z,17.02
2023-06-18T02:40:25.315Z,17.01
2023-06-18T02:42:51.951Z,16.98
2023-06-18T02:45:21.211Z,16.99
2023-06-18T02:47:49.448Z,17.02
2023-06-18T02:50:17.061Z,17.06
2023-06-18T02:52:44.946Z,17.05
2023-06-18T02:55:12.926Z,17.08
2023-06-18T02:57:40.582Z,17.07
2023-06-18T03:00:09.649Z,17.08
2023-06-18T03:02:36.896Z,17.08
2023-06-18T03:05:03.903Z,17.09
2023-06-18T03:07:30.571Z,17.08
2023-06-18T03:09:56.981Z,17.05
2023-06-18T03:12:23.529Z,17.03
2023-06-18T03:14:50.003Z,17.03
2023-06-18T03:17:16.459Z,17.03
2023-06-18T03:19:42.929Z,17.00
2023-06-18T03:22:09.621Z,16.99
2023-06-18T03:24:36.125Z,16.97
2023-06-18T03:27:02.652Z,16.90
2023-06-18T03:29:29.043Z,16.83
2023-06-18T03:31:56.143Z,16.70
2023-06-18T03:34:23.365Z,16.63
2023-06-18T03:36:50.448Z,16.58
2023-06-18T03:39:17.544Z,16.59
2023-06-18T03:41:43.968Z,16.59
2023-06-18T03:44:10.585Z,16.60
2023-06-18T03:46:37.390Z,16.62
2023-06-18T03:49:04.436Z,16.62
2023-06-18T03:51:30.817Z,16.61
2023-06-18T03:53:57.222Z,16.63
2023-06-18T03:56:23.630Z,16.60
2023-06-18T03:58:50.070Z,16.60
2023-06-18T04:01:16.557Z,16.55
2023-06-18T04:03:43.209Z,16.55
2023-06-18T04:06:09.748Z,16.57
2023-06-18T04:08:36.560Z,16.58
2023-06-18T04:11:03.085Z,16.60
2023-06-18T04:13:29.583Z,16.60
2023-06-18T04:15:56.137Z,16.56
2023-06-18T04:18:22.540Z,16.58
2023-06-18T04:20:48.924Z,16.57
2023-06-18T04:23:15.385Z,16.63
2023-06-18T04:25:41.793Z,16.69
2023-06-18T04:28:08.499Z,16.78
2023-06-18T04:30:34.933Z,16.83
2023-06-18T04:33:01.401Z,16.89
2023-06-18T04:35:27.843Z,16.91
2023-06-18T04:37:54.238Z,16.93
2023-06-18T04:40:20.812Z,16.99
2023-06-18T04:42:47.343Z,17.05
2023-06-18T04:45:13.776Z,17.13
2023-06-18T04:47:40.266Z,17.27
2023-06-18T04:50:07.778Z,17.40
2023-06-18T04:52:34.567Z,17.57
2023-06-18T04:55:01.009Z,17.75
2023-06-18T04:57:29.028Z,17.90
2023-06-18T04:59:55.401Z,18.04
2023-06-18T05:02:21.819Z,18.17
2023-06-18T05:04:48.391Z,18.32
2023-06-18T05:07:14.934Z,18.47
2023-06-18T05:09:41.594Z,18.71
2023-06-18T05:12:08.451Z,19.00
2023-06-18T05:14:35.595Z,19.38
2023-06-18T05:17:02.080Z,19.73
2023-06-18T05:19:28.606Z,20.07
2023-06-18T05:21:54.959Z,20.52
2023-06-18T05:24:21.390Z,21.01
2023-06-18T05:26:47.819Z,21.47
2023-06-18T05:29:14.286Z,21.79
2023-06-18T05:31:40.698Z,21.98
2023-06-18T05:34:07.098Z,22.08
2023-06-18T05:36:33.506Z,22.23
2023-06-18T05:38:59.918Z,22.41
2023-06-18T05:41:27.392Z,22.69
2023-06-18T05:43:54.147Z,23.11
2023-06-18T05:46:20.924Z,23.55
2023-06-18T05:48:47.404Z,23.90
2023-06-18T05:51:14.017Z,24.14
2023-06-18T05:53:40.427Z,24.29
2023-06-18T05:56:06.831Z,24.55
2023-06-18T05:58:34.248Z,24.83
2023-06-18T06:01:00.609Z,25.18
2023-06-18T06:03:27.068Z,25.61
2023-06-18T06:05:53.564Z,26.09
2023-06-18T06:08:19.996Z,26.46
2023-06-18T06:10:46.418Z,26.81
2023-06-18T06:13:12.823Z,27.20
2023-06-18T06:15:39.399Z,27.63
2023-06-18T06:18:05.923Z,28.12
2023-06-18T06:20:32.352Z,28.53
2023-06-18T06:22:58.770Z,28.73
2023-06-18T06:25:25.158Z,28.94
2023-06-18T06:27:51.568Z,29.27
2023-06-18T06:30:18.059Z,29.54
2023-06-18T06:32:44.505Z,29.86
2023-06-18T06:35:11.239Z,30.05
2023-06-18T06:37:37.788Z,30.23
2023-06-18T06:40:04.507Z,30.29
2023-06-18T06:42:30.981Z,30.26
2023-06-18T06:44:57.589Z,30.34
2023-06-18T06:47:24.065Z,30.47
2023-06-18T06:49:50.527Z,30.41
2023-06-18T06:52:17.038Z,30.53
2023-06-18T06:54:43.404Z,30.52
2023-06-18T06:57:09.827Z,30.50
2023-06-18T06:59:36.240Z,30.70
2023-06-18T07:02:02.734Z,30.89
2023-06-18T07:04:31.176Z,31.07
2023-06-18T07:06:59.339Z,31.10
2023-06-18T07:09:25.757Z,31.03
2023-06-18T07:11:52.248Z,31.00
2023-06-18T07:14:18.671Z,31.07
2023-06-18T07:16:45.135Z,31.22
2023-06-18T07:19:11.563Z,31.39
2023-06-18T07:21:38.027Z,31.48
2023-06-18T07:24:04.740Z,31.62
2023-06-18T07:26:31.155Z,31.82
2023-06-18T07:28:57.578Z,32.02
2023-06-18T07:31:23.967Z,31.93
2023-06-18T07:33:50.356Z,31.81
2023-06-18T07:36:16.784Z,31.76
2023-06-18T07:38:43.193Z,31.87
2023-06-18T07:41:09.619Z,32.01
2023-06-18T07:43:36.036Z,32.00
2023-06-18T07:46:02.588Z,31.96
2023-06-18T07:48:29.077Z,31.97
2023-06-18T07:50:55.676Z,32.00
2023-06-18T07:53:22.036Z,31.94
2023-06-18T07:55:48.506Z,31.85
2023-06-18T07:58:15.010Z,31.72
2023-06-18T08:00:41.396Z,31.52
2023-06-18T08:03:07.896Z,31.56
2023-06-18T08:05:34.335Z,31.88
2023-06-18T08:08:00.912Z,32.03
2023-06-18T08:10:27.299Z,32.12
2023-06-18T08:12:53.704Z,32.19
2023-06-18T08:15:20.226Z,32.25
2023-06-18T08:17:46.760Z,32.20
2023-06-18T08:20:13.322Z,32.11
2023-06-18T08:22:39.732Z,32.06
2023-06-18T08:25:06.325Z,32.17
2023-06-18T08:27:32.778Z,32.41
2023-06-18T08:29:59.179Z,32.54
2023-06-18T08:32:25.628Z,32.70
2023-06-18T08:34:52.114Z,32.85
2023-06-18T08:37:18.709Z,32.99
2023-06-18T08:39:45.130Z,33.16
2023-06-18T08:42:11.554Z,33.31
2023-06-18T08:44:37.929Z,33.36
2023-06-18T08:47:04.945Z,33.42
2023-06-18T08:49:32.456Z,33.53
2023-06-18T08:52:01.481Z,33.49
2023-06-18T08:54:32.558Z,33.15
2023-06-18T08:57:06.501Z,32.71
2023-06-18T08:59:34.861Z,32.30
2023-06-18T09:02:01.448Z,31.91
2023-06-18T09:04:28.031Z,31.43
2023-06-18T09:06:54.784Z,30.97
2023-06-18T09:09:21.884Z,30.64
2023-06-18T09:11:48.351Z,30.38
2023-06-18T09:14:18.041Z,30.12
2023-06-18T09:16:44.936Z,29.78
2023-06-18T09:19:11.823Z,29.48
2023-06-18T09:21:40.674Z,29.25
2023-06-18T09:24:08.709Z,29.07
2023-06-18T09:26:36.284Z,28.97
2023-06-18T09:29:07.002Z,28.99
2023-06-18T09:31:35.530Z,29.02
2023-06-18T09:34:17.166Z,29.06
2023-06-18T09:36:45.642Z,29.04
2023-06-18T09:39:30.165Z,29.05
2023-06-18T09:41:56.537Z,29.17
2023-06-18T09:44:24.152Z,29.23
2023-06-18T09:46:58.133Z,29.33
2023-06-18T09:49:26.337Z,29.39
2023-06-18T09:51:53.600Z,29.43
2023-06-18T09:54:21.089Z,29.41
2023-06-18T09:56:58.754Z,29.42
2023-06-18T09:59:26.269Z,29.51
2023-06-18T10:01:53.574Z,29.57
2023-06-18T10:04:20.132Z,29.63
2023-06-18T10:07:02.936Z,29.78
2023-06-18T10:09:34.642Z,29.85
2023-06-18T10:12:03.380Z,29.93
2023-06-18T10:14:31.338Z,30.00
2023-06-18T10:17:23.009Z,30.08
2023-06-18T10:20:10.523Z,30.22
2023-06-18T10:22:49.752Z,30.38
2023-06-18T10:25:16.645Z,30.54
2023-06-18T10:27:43.403Z,30.62
2023-06-18T10:30:10.291Z,30.73
2023-06-18T10:32:39.331Z,30.71
2023-06-18T10:35:09.124Z,30.73
2023-06-18T10:37:37.261Z,30.81
2023-06-18T10:40:04.690Z,30.93
2023-06-18T10:42:32.636Z,31.14
2023-06-18T10:45:08.953Z,31.39
2023-06-18T10:47:35.800Z,31.50
2023-06-18T10:50:02.158Z,31.58
2023-06-18T10:52:36.260Z,31.67
2023-06-18T10:55:12.726Z,31.70
2023-06-18T10:57:43.120Z,31.75
2023-06-18T11:00:19.696Z,31.86
2023-06-18T11:02:48.460Z,31.89
2023-06-18T11:05:33.587Z,31.84
2023-06-18T11:08:09.028Z,31.80
2023-06-18T11:10:37.452Z,31.71
2023-06-18T11:13:05.075Z,31.57
2023-06-18T11:15:32.439Z,31.50
2023-06-18T11:17:59.457Z,31.46
2023-06-18T11:20:28.086Z,31.30
2023-06-18T11:22:55.906Z,31.21
2023-06-18T11:25:23.626Z,30.98
2023-06-18T11:27:50.695Z,30.88
2023-06-18T11:30:19.709Z,30.79
2023-06-18T11:32:46.892Z,30.72
2023-06-18T11:35:14.475Z,30.57
2023-06-18T11:37:42.591Z,30.51
2023-06-18T11:40:10.527Z,30.41
2023-06-18T11:42:38.862Z,30.35
2023-06-18T11:45:06.907Z,30.33
2023-06-18T11:47:34.503Z,30.30
2023-06-18T11:50:02.004Z,30.24
2023-06-18T11:52:29.328Z,30.21
2023-06-18T11:55:02.668Z,30.24
2023-06-18T11:57:29.298Z,30.24
2023-06-18T11:59:55.907Z,30.25
2023-06-18T12:02:27.196Z,30.26
2023-06-18T12:04:58.600Z,30.24
2023-06-18T12:07:26.004Z,30.16
2023-06-18T12:09:54.303Z,30.07
2023-06-18T12:12:39.011Z,29.91
2023-06-18T12:15:30.175Z,29.84
2023-06-18T12:18:20.170Z,29.74
2023-06-18T12:20:46.717Z,29.67
2023-06-18T12:23:13.507Z,29.67
2023-06-18T12:25:40.059Z,29.67
2023-06-18T12:28:06.619Z,29.60
2023-06-18T12:30:38.322Z,29.49
2023-06-18T12:33:05.685Z,29.47
2023-06-18T12:35:32.681Z,29.48
2023-06-18T12:38:09.915Z,29.56
2023-06-18T12:40:50.593Z,29.57
2023-06-18T12:43:18.542Z,29.61
2023-06-18T12:45:49.513Z,29.64
2023-06-18T12:48:18.347Z,29.62
2023-06-18T12:50:49.606Z,29.58
2023-06-18T12:53:25.032Z,29.49
2023-06-18T12:55:54.865Z,29.49
2023-06-18T12:58:26.532Z,29.45
2023-06-18T13:00:54.344Z,29.42
2023-06-18T13:03:21.719Z,29.33
2023-06-18T13:05:48.841Z,29.22
2023-06-18T13:08:19.858Z,29.08
2023-06-18T13:10:48.167Z,29.01
2023-06-18T13:13:15.788Z,28.87
2023-06-18T13:15:42.206Z,28.76
2023-06-18T13:18:09.010Z,28.71
2023-06-18T13:20:37.620Z,28.61
2023-06-18T13:23:04.828Z,28.47
2023-06-18T13:25:31.951Z,28.36
2023-06-18T13:27:58.831Z,28.25
2023-06-18T13:30:25.374Z,28.21
2023-06-18T13:32:51.815Z,28.15
2023-06-18T13:35:18.408Z,28.14
2023-06-18T13:37:44.972Z,28.10
2023-06-18T13:40:11.865Z,28.03
2023-06-18T13:42:38.288Z,28.01
2023-06-18T13:45:05.994Z,27.99
2023-06-18T13:47:32.446Z,27.97
2023-06-18T13:49:58.884Z,27.95
2023-06-18T13:52:25.388Z,27.96
2023-06-18T13:54:51.993Z,27.98
2023-06-18T13:57:19.406Z,27.98
2023-06-18T13:59:46.270Z,27.97
2023-06-18T14:02:12.914Z,27.93
2023-06-18T14:04:40.896Z,27.89
2023-06-18T14:07:07.567Z,27.86
2023-06-18T14:09:34.364Z,27.81
2023-06-18T14:12:00.777Z,27.81
2023-06-18T14:14:27.286Z,27.79
2023-06-18T14:16:53.735Z,27.75
2023-06-18T14:19:20.147Z,27.67
2023-06-18T14:21:46.556Z,27.58
2023-06-18T14:24:13.047Z,27.51
2023-06-18T14:26:39.492Z,27.46
2023-06-18T14:29:05.943Z,27.40
2023-06-18T14:31:32.341Z,27.36
2023-06-18T14:34:08.513Z,27.32
2023-06-18T14:36:38.894Z,27.31
2023-06-18T14:39:06.753Z,27.25
2023-06-18T14:41:33.142Z,27.19
2023-06-18T14:43:59.590Z,27.12
2023-06-18T14:46:26.107Z,27.01
2023-06-18T14:48:52.754Z,26.83
2023-06-18T14:51:19.153Z,26.69
2023-06-18T14:53:45.623Z,26.56
2023-06-18T14:56:12.046Z,26.50
2023-06-18T14:58:38.435Z,26.44
2023-06-18T15:01:04.793Z,26.40
2023-06-18T15:03:31.414Z,26.32
2023-06-18T15:05:57.966Z,26.27
2023-06-18T15:08:24.359Z,26.21
2023-06-18T15:10:50.810Z,26.17
2023-06-18T15:13:17.254Z,26.10
2023-06-18T15:15:44.166Z,25.98
2023-06-18T15:18:10.560Z,25.86
2023-06-18T15:20:38.677Z,25.76
2023-06-18T15:23:06.345Z,25.67
2023-06-18T15:25:32.864Z,25.57
2023-06-18T15:28:01.142Z,25.47
2023-06-18T15:30:27.537Z,25.44
2023-06-18T15:32:53.964Z,25.45
2023-06-18T15:35:20.595Z,25.48
2023-06-18T15:37:47.138Z,25.49
2023-06-18T15:40:13.583Z,25.50
2023-06-18T15:42:39.979Z,25.48
2023-06-18T15:45:07.134Z,25.50
2023-06-18T15:47:33.592Z,25.45
2023-06-18T15:50:00.031Z,25.44
2023-06-18T15:52:26.530Z,25.41
2023-06-18T15:54:52.910Z,25.44
2023-06-18T15:57:19.322Z,25.45
2023-06-18T15:59:45.728Z,25.43
2023-06-18T16:02:12.219Z,25.41
2023-06-18T16:04:38.658Z,25.46
2023-06-18T16:07:05.205Z,25.46
2023-06-18T16:09:31.616Z,25.44
2023-06-18T16:11:58.008Z,25.37
2023-06-18T16:14:24.392Z,25.28
2023-06-18T16:16:50.794Z,25.17
2023-06-18T16:19:17.161Z,25.07
2023-06-18T16:21:43.598Z,24.98
2023-06-18T16:24:10.009Z,24.91
2023-06-18T16:26:36.430Z,24.83
2023-06-18T16:29:02.828Z,24.71
2023-06-18T16:31:29.263Z,24.58
2023-06-18T16:33:55.701Z,24.49
2023-06-18T16:36:22.244Z,24.38
2023-06-18T16:38:48.700Z,24.34
2023-06-18T16:41:15.105Z,24.30
2023-06-18T16:43:41.594Z,24.26
2023-06-18T16:46:08.203Z,24.26
2023-06-18T16:48:34.566Z,24.20
2023-06-18T16:51:01.012Z,24.19
2023-06-18T16:53:27.457Z,24.15
2023-06-18T16:55:54.043Z,24.06
2023-06-18T16:58:20.405Z,24.00
2023-06-18T17:00:46.881Z,23.94
2023-06-18T17:03:13.356Z,23.84
2023-06-18T17:05:39.772Z,23.80
2023-06-18T17:08:06.623Z,23.75
2023-06-18T17:10:33.294Z,23.74
2023-06-18T17:12:59.698Z,23.75
2023-06-18T17:15:27.192Z,23.67
2023-06-18T17:17:54.292Z,23.68
2023-06-18T17:20:20.891Z,23.63
2023-06-18T17:22:47.263Z,23.60
2023-06-18T17:25:13.741Z,23.55
2023-06-18T17:27:40.303Z,23.53
2023-06-18T17:30:07.601Z,23.49
2023-06-18T17:32:34.171Z,23.45
2023-06-18T17:35:00.619Z,23.44
2023-06-18T17:37:27.036Z,23.44
2023-06-18T17:39:53.494Z,23.45
2023-06-18T17:42:20.012Z,23.46
2023-06-18T17:44:46.387Z,23.47
2023-06-18T17:47:12.780Z,23.50
2023-06-18T17:49:39.175Z,23.51
2023-06-18T17:52:05.839Z,23.51
2023-06-18T17:54:32.251Z,23.49
2023-06-18T17:56:58.692Z,23.55
2023-06-18T17:59:25.051Z,23.57
2023-06-18T18:01:51.526Z,23.62
2023-06-18T18:04:18.026Z,23.65
2023-06-18T18:06:45.855Z,23.69
2023-06-18T18:09:12.238Z,23.69
2023-06-18T18:11:38.657Z,23.73
2023-06-18T18:14:05.086Z,23.73
2023-06-18T18:16:31.517Z,23.76
2023-06-18T18:18:58.069Z,23.77
2023-06-18T18:21:24.554Z,23.75
2023-06-18T18:23:51.042Z,23.73
2023-06-18T18:26:17.610Z,23.74
2023-06-18T18:28:44.160Z,23.72
2023-06-18T18:31:10.593Z,23.70
2023-06-18T18:33:37.183Z,23.67
2023-06-18T18:36:07.433Z,23.62
2023-06-18T18:38:33.874Z,23.57
2023-06-18T18:41:00.300Z,23.55
2023-06-18T18:43:26.760Z,23.53
2023-06-18T18:45:53.185Z,23.49
2023-06-18T18:48:20.945Z,23.41
2023-06-18T18:50:47.342Z,23.40
2023-06-18T18:53:13.798Z,23.34
2023-06-18T18:55:40.180Z,23.32
2023-06-18T18:58:06.666Z,23.26
2023-06-18T19:00:33.080Z,23.24
2023-06-18T19:02:59.508Z,23.22
2023-06-18T19:05:26.007Z,23.20
2023-06-18T19:07:52.411Z,23.17
2023-06-18T19:10:18.894Z,23.17
2023-06-18T19:12:45.313Z,23.14
2023-06-18T19:15:11.830Z,23.07
2023-06-18T19:17:39.167Z,23.01
2023-06-18T19:20:06.482Z,22.96
2023-06-18T19:22:32.878Z,22.88
2023-06-18T19:25:00.029Z,22.84
2023-06-18T19:27:27.499Z,22.81
2023-06-18T19:29:54.278Z,22.78
2023-06-18T19:32:23.247Z,22.72
2023-06-18T19:34:50.134Z,22.70
2023-06-18T19:37:16.507Z,22.72
2023-06-18T19:39:42.942Z,22.76
2023-06-18T19:42:09.403Z,22.83
2023-06-18T19:44:35.757Z,22.85
2023-06-18T19:47:02.132Z,22.86
2023-06-18T19:49:28.584Z,22.85
2023-06-18T19:51:55.053Z,22.82
2023-06-18T19:54:21.455Z,22.79
2023-06-18T19:56:47.838Z,22.73
2023-06-18T19:59:14.294Z,22.68
2023-06-18T20:01:40.726Z,22.62
2023-06-18T20:04:07.334Z,22.56
2023-06-18T20:06:33.809Z,22.49
2023-06-18T20:09:00.384Z,22.47
2023-06-18T20:11:26.791Z,22.41
2023-06-18T20:13:53.193Z,22.38
2023-06-18T20:16:19.892Z,22.33
2023-06-18T20:18:46.315Z,22.28
2023-06-18T20:21:12.897Z,22.23
2023-06-18T20:23:39.350Z,22.22
2023-06-18T20:26:06.735Z,22.21
2023-06-18T20:28:33.293Z,22.20
2023-06-18T20:30:59.673Z,22.16
2023-06-18T20:33:26.143Z,22.10
2023-06-18T20:35:52.668Z,22.08
2023-06-18T20:38:19.096Z,22.07
2023-06-18T20:40:45.553Z,22.08
2023-06-18T20:43:12.297Z,22.04
2023-06-18T20:45:39.241Z,21.98
2023-06-18T20:48:05.757Z,21.91
2023-06-18T20:50:32.289Z,21.87
2023-06-18T20:52:58.707Z,21.83
2023-06-18T20:55:25.153Z,21.77
2023-06-18T20:57:51.589Z,21.72
2023-06-18T21:00:18.047Z,21.69
2023-06-18T21:02:44.570Z,21.63
2023-06-18T21:05:12.097Z,21.61
2023-06-18T21:07:38.566Z,21.61
2023-06-18T21:10:06.102Z,21.58
2023-06-18T21:12:32.795Z,21.57
2023-06-18T21:14:59.362Z,21.58
2023-06-18T21:17:25.816Z,21.56
2023-06-18T21:19:52.195Z,21.55
2023-06-18T21:22:18.638Z,21.54
2023-06-18T21:24:45.445Z,21.58
2023-06-18T21:27:11.928Z,21.59
2023-06-18T21:29:38.395Z,21.59
2023-06-18T21:32:05.133Z,21.63
2023-06-18T21:34:31.500Z,21.70
2023-06-18T21:36:57.927Z,21.75
2023-06-18T21:39:24.361Z,21.77
2023-06-18T21:41:50.849Z,21.83
2023-06-18T21:44:17.263Z,21.87
2023-06-18T21:46:43.758Z,21.89
2023-06-18T21:49:10.180Z,21.92
2023-06-18T21:51:36.631Z,21.97
2023-06-18T21:54:03.062Z,21.97
2023-06-18T21:56:29.454Z,22.01
2023-06-18T21:58:55.903Z,22.03
2023-06-18T22:01:22.337Z,22.05
2023-06-18T22:03:48.835Z,22.07
2023-06-18T22:06:15.442Z,22.08
2023-06-18T22:08:43.582Z,22.10
2023-06-18T22:11:09.970Z,22.13
2023-06-18T22:13:36.522Z,22.15
2023-06-18T22:16:03.038Z,22.18
2023-06-18T22:18:29.488Z,22.22
2023-06-18T22:20:55.873Z,22.25
2023-06-18T22:23:22.344Z,22.30
2023-06-18T22:25:48.750Z,22.31
2023-06-18T22:28:15.189Z,22.34
2023-06-18T22:30:41.573Z,22.39
2023-06-18T22:33:08.047Z,22.41
2023-06-18T22:35:34.455Z,22.43
2023-06-18T22:38:00.914Z,22.47
2023-06-18T22:40:27.299Z,22.54
2023-06-18T22:42:53.844Z,22.57
2023-06-18T22:45:22.633Z,22.57
2023-06-18T22:47:49.285Z,22.59
2023-06-18T22:50:15.918Z,22.59
2023-06-18T22:52:42.304Z,22.63
2023-06-18T22:55:09.281Z,22.66
2023-06-18T22:57:35.786Z,22.65
2023-06-18T23:00:03.647Z,22.66
2023-06-18T23:02:30.174Z,22.66
2023-06-18T23:04:56.720Z,22.65
2023-06-18T23:07:23.158Z,22.65
2023-06-18T23:09:49.593Z,22.66
2023-06-18T23:12:16.044Z,22.67
2023-06-18T23:14:42.447Z,22.68
2023-06-18T23:17:08.942Z,22.65
2023-06-18T23:19:35.359Z,22.66
2023-06-18T23:22:01.724Z,22.62
2023-06-18T23:24:28.131Z,22.69
2023-06-18T23:26:54.598Z,22.67
2023-06-18T23:29:21.014Z,22.81
2023-06-18T23:31:47.381Z,22.86
2023-06-18T23:34:13.754Z,22.86
2023-06-18T23:36:40.285Z,22.89
2023-06-18T23:39:07.089Z,22.90
2023-06-18T23:41:33.505Z,22.91
2023-06-18T23:43:59.987Z,22.96
2023-06-18T23:46:28.795Z,22.94
2023-06-18T23:48:55.228Z,22.92
2023-06-18T23:51:21.822Z,22.97
2023-06-18T23:53:48.342Z,22.99
2023-06-18T23:56:15.106Z,23.00
2023-06-18T23:58:41.545Z,23.00
